sensor_id;sensor_type;location;lat;lon;timestamp;P1;durP1;ratioP1;P2;durP2;ratioP2
16522;SDS011;19889;52.546;13.348;2023-04-09T00:00:43;27.23;;;17.77;;
16522;SDS011;19889;52.546;13.348;2023-04-09T00:03:12;25.90;;;17.50;;
16522;SDS011;19889;52.546;13.348;2023-04-09T00:05:39;25.63;;;18.33;;
16522;SDS011;19889;52.546;13.348;2023-04-09T00:08:06;29.33;;;17.20;;
16522;SDS011;19889;52.546;13.348;2023-04-09T00:10:33;24.97;;;16.77;;
16522;SDS011;19889;52.546;13.348;2023-04-09T00:13:00;27.73;;;17.27;;
16522;SDS011;19889;52.546;13.348;2023-04-09T00:15:27;26.10;;;16.20;;
16522;SDS011;19889;52.546;13.348;2023-04-09T00:17:54;26.60;;;17.47;;
16522;SDS011;19889;52.546;13.348;2023-04-09T00:20:23;28.20;;;17.70;;
16522;SDS011;19889;52.546;13.348;2023-04-09T00:22:50;26.77;;;17.30;;
16522;SDS011;19889;52.546;13.348;2023-04-09T00:25:17;25.77;;;17.47;;
16522;SDS011;19889;52.546;13.348;2023-04-09T00:27:44;26.70;;;16.60;;
16522;SDS011;19889;52.546;13.348;2023-04-09T00:30:11;27.87;;;17.93;;
16522;SDS011;19889;52.546;13.348;2023-04-09T00:32:38;26.67;;;17.80;;
16522;SDS011;19889;52.546;13.348;2023-04-09T00:35:05;27.90;;;18.40;;
16522;SDS011;19889;52.546;13.348;2023-04-09T00:37:34;29.97;;;18.43;;
16522;SDS011;19889;52.546;13.348;2023-04-09T00:40:01;30.63;;;19.10;;
16522;SDS011;19889;52.546;13.348;2023-04-09T00:42:30;28.73;;;18.77;;
16522;SDS011;19889;52.546;13.348;2023-04-09T00:44:58;29.30;;;18.40;;
16522;SDS011;19889;52.546;13.348;2023-04-09T00:47:25;27.57;;;18.97;;
16522;SDS011;19889;52.546;13.348;2023-04-09T00:49:53;29.40;;;19.20;;
16522;SDS011;19889;52.546;13.348;2023-04-09T00:52:20;29.40;;;18.23;;
16522;SDS011;19889;52.546;13.348;2023-04-09T00:54:49;26.07;;;18.53;;
16522;SDS011;19889;52.546;13.348;2023-04-09T00:57:17;26.40;;;18.13;;
16522;SDS011;19889;52.546;13.348;2023-04-09T00:59:44;27.77;;;17.70;;
16522;SDS011;19889;52.546;13.348;2023-04-09T01:02:11;25.73;;;17.10;;
16522;SDS011;19889;52.546;13.348;2023-04-09T01:04:39;25.77;;;17.07;;
16522;SDS011;19889;52.546;13.348;2023-04-09T01:07:09;25.63;;;17.90;;
16522;SDS011;19889;52.546;13.348;2023-04-09T01:09:42;25.93;;;17.97;;
16522;SDS011;19889;52.546;13.348;2023-04-09T01:12:20;26.67;;;17.33;;
16522;SDS011;19889;52.546;13.348;2023-04-09T01:14:58;29.03;;;18.43;;
16522;SDS011;19889;52.546;13.348;2023-04-09T01:17:32;27.30;;;18.60;;
16522;SDS011;19889;52.546;13.348;2023-04-09T01:20:05;25.93;;;17.60;;
16522;SDS011;19889;52.546;13.348;2023-04-09T01:22:39;27.70;;;18.57;;
16522;SDS011;19889;52.546;13.348;2023-04-09T01:25:18;27.73;;;18.77;;
16522;SDS011;19889;52.546;13.348;2023-04-09T01:28:13;25.53;;;17.87;;
16522;SDS011;19889;52.546;13.348;2023-04-09T01:30:42;28.13;;;18.03;;
16522;SDS011;19889;52.546;13.348;2023-04-09T01:33:13;28.43;;;18.27;;
16522;SDS011;19889;52.546;13.348;2023-04-09T01:35:41;28.90;;;18.37;;
16522;SDS011;19889;52.546;13.348;2023-04-09T01:38:10;27.00;;;17.57;;
16522;SDS011;19889;52.546;13.348;2023-04-09T01:40:39;29.33;;;18.70;;
16522;SDS011;19889;52.546;13.348;2023-04-09T01:43:06;27.33;;;17.50;;
16522;SDS011;19889;52.546;13.348;2023-04-09T01:45:36;26.47;;;17.10;;
16522;SDS011;19889;52.546;13.348;2023-04-09T01:48:04;25.03;;;17.13;;
16522;SDS011;19889;52.546;13.348;2023-04-09T01:50:32;29.93;;;19.33;;
16522;SDS011;19889;52.546;13.348;2023-04-09T01:52:59;28.47;;;18.30;;
16522;SDS011;19889;52.546;13.348;2023-04-09T01:55:27;27.37;;;18.40;;
16522;SDS011;19889;52.546;13.348;2023-04-09T01:57:54;23.33;;;16.87;;
16522;SDS011;19889;52.546;13.348;2023-04-09T02:00:22;23.70;;;16.93;;
16522;SDS011;19889;52.546;13.348;2023-04-09T02:02:54;27.57;;;18.00;;
16522;SDS011;19889;52.546;13.348;2023-04-09T02:05:27;25.87;;;17.33;;
16522;SDS011;19889;52.546;13.348;2023-04-09T02:07:57;29.30;;;18.17;;
16522;SDS011;19889;52.546;13.348;2023-04-09T02:10:27;29.13;;;18.70;;
16522;SDS011;19889;52.546;13.348;2023-04-09T02:12:57;30.73;;;19.17;;
16522;SDS011;19889;52.546;13.348;2023-04-09T02:15:27;29.90;;;19.00;;
16522;SDS011;19889;52.546;13.348;2023-04-09T02:17:58;23.63;;;16.37;;
16522;SDS011;19889;52.546;13.348;2023-04-09T02:20:25;25.87;;;16.77;;
16522;SDS011;19889;52.546;13.348;2023-04-09T02:22:52;26.37;;;17.97;;
16522;SDS011;19889;52.546;13.348;2023-04-09T02:25:20;27.13;;;17.53;;
16522;SDS011;19889;52.546;13.348;2023-04-09T02:27:48;25.37;;;17.80;;
16522;SDS011;19889;52.546;13.348;2023-04-09T02:30:15;29.17;;;19.03;;
16522;SDS011;19889;52.546;13.348;2023-04-09T02:32:42;27.53;;;18.80;;
16522;SDS011;19889;52.546;13.348;2023-04-09T02:35:10;28.00;;;17.67;;
16522;SDS011;19889;52.546;13.348;2023-04-09T02:37:38;28.43;;;17.73;;
16522;SDS011;19889;52.546;13.348;2023-04-09T02:40:06;27.87;;;18.40;;
16522;SDS011;19889;52.546;13.348;2023-04-09T02:42:33;29.50;;;18.23;;
16522;SDS011;19889;52.546;13.348;2023-04-09T02:45:00;25.60;;;16.97;;
16522;SDS011;19889;52.546;13.348;2023-04-09T02:47:30;26.83;;;16.90;;
16522;SDS011;19889;52.546;13.348;2023-04-09T02:49:57;28.00;;;17.67;;
16522;SDS011;19889;52.546;13.348;2023-04-09T02:52:27;28.07;;;18.03;;
16522;SDS011;19889;52.546;13.348;2023-04-09T02:54:54;31.07;;;18.63;;
16522;SDS011;19889;52.546;13.348;2023-04-09T02:57:21;30.40;;;19.07;;
16522;SDS011;19889;52.546;13.348;2023-04-09T02:59:48;27.83;;;18.13;;
16522;SDS011;19889;52.546;13.348;2023-04-09T03:02:15;27.33;;;16.63;;
16522;SDS011;19889;52.546;13.348;2023-04-09T03:04:42;26.40;;;17.33;;
16522;SDS011;19889;52.546;13.348;2023-04-09T03:07:08;29.13;;;17.30;;
16522;SDS011;19889;52.546;13.348;2023-04-09T03:09:37;25.53;;;16.50;;
16522;SDS011;19889;52.546;13.348;2023-04-09T03:12:04;27.80;;;17.53;;
16522;SDS011;19889;52.546;13.348;2023-04-09T03:14:31;25.40;;;16.87;;
16522;SDS011;19889;52.546;13.348;2023-04-09T03:16:58;25.97;;;17.30;;
16522;SDS011;19889;52.546;13.348;2023-04-09T03:19:25;26.13;;;17.67;;
16522;SDS011;19889;52.546;13.348;2023-04-09T03:21:52;28.60;;;18.00;;
16522;SDS011;19889;52.546;13.348;2023-04-09T03:24:23;29.83;;;16.90;;
16522;SDS011;19889;52.546;13.348;2023-04-09T03:26:52;29.47;;;17.23;;
16522;SDS011;19889;52.546;13.348;2023-04-09T03:29:19;31.57;;;18.90;;
16522;SDS011;19889;52.546;13.348;2023-04-09T03:31:46;26.97;;;16.70;;
16522;SDS011;19889;52.546;13.348;2023-04-09T03:34:13;29.20;;;17.00;;
16522;SDS011;19889;52.546;13.348;2023-04-09T03:36:40;25.27;;;16.47;;
16522;SDS011;19889;52.546;13.348;2023-04-09T03:39:17;24.20;;;14.83;;
16522;SDS011;19889;52.546;13.348;2023-04-09T03:41:44;26.83;;;16.37;;
16522;SDS011;19889;52.546;13.348;2023-04-09T03:44:15;23.27;;;15.90;;
16522;SDS011;19889;52.546;13.348;2023-04-09T03:47:03;26.40;;;15.70;;
16522;SDS011;19889;52.546;13.348;2023-04-09T03:49:33;25.33;;;15.40;;
16522;SDS011;19889;52.546;13.348;2023-04-09T03:52:08;20.77;;;14.87;;
16522;SDS011;19889;52.546;13.348;2023-04-09T03:54:39;23.83;;;15.87;;
16522;SDS011;19889;52.546;13.348;2023-04-09T03:57:12;23.50;;;15.03;;
16522;SDS011;19889;52.546;13.348;2023-04-09T03:59:43;23.50;;;16.20;;
16522;SDS011;19889;52.546;13.348;2023-04-09T04:02:12;23.60;;;15.20;;
16522;SDS011;19889;52.546;13.348;2023-04-09T04:04:44;24.47;;;16.17;;
16522;SDS011;19889;52.546;13.348;2023-04-09T04:07:11;25.17;;;15.27;;
16522;SDS011;19889;52.546;13.348;2023-04-09T04:09:45;28.40;;;17.30;;
16522;SDS011;19889;52.546;13.348;2023-04-09T04:12:15;25.67;;;15.87;;
16522;SDS011;19889;52.546;13.348;2023-04-09T04:14:59;23.73;;;15.80;;
16522;SDS011;19889;52.546;13.348;2023-04-09T04:17:52;23.33;;;15.67;;
16522;SDS011;19889;52.546;13.348;2023-04-09T04:20:42;24.97;;;15.70;;
16522;SDS011;19889;52.546;13.348;2023-04-09T04:23:12;24.13;;;15.60;;
16522;SDS011;19889;52.546;13.348;2023-04-09T04:25:48;25.93;;;15.93;;
16522;SDS011;19889;52.546;13.348;2023-04-09T04:28:22;24.80;;;16.43;;
16522;SDS011;19889;52.546;13.348;2023-04-09T04:30:51;23.20;;;16.03;;
16522;SDS011;19889;52.546;13.348;2023-04-09T04:33:18;24.93;;;15.97;;
16522;SDS011;19889;52.546;13.348;2023-04-09T04:35:50;24.07;;;15.87;;
16522;SDS011;19889;52.546;13.348;2023-04-09T04:38:43;24.80;;;15.53;;
16522;SDS011;19889;52.546;13.348;2023-04-09T04:41:16;23.77;;;15.43;;
16522;SDS011;19889;52.546;13.348;2023-04-09T04:43:50;26.20;;;16.60;;
16522;SDS011;19889;52.546;13.348;2023-04-09T04:46:22;24.90;;;16.47;;
16522;SDS011;19889;52.546;13.348;2023-04-09T04:48:48;23.50;;;14.67;;
16522;SDS011;19889;52.546;13.348;2023-04-09T04:51:16;26.63;;;15.67;;
16522;SDS011;19889;52.546;13.348;2023-04-09T04:53:55;23.87;;;15.43;;
16522;SDS011;19889;52.546;13.348;2023-04-09T04:56:22;23.30;;;15.63;;
16522;SDS011;19889;52.546;13.348;2023-04-09T04:59:14;23.37;;;15.90;;
16522;SDS011;19889;52.546;13.348;2023-04-09T05:01:56;28.53;;;18.17;;
16522;SDS011;19889;52.546;13.348;2023-04-09T05:04:28;28.80;;;20.40;;
16522;SDS011;19889;52.546;13.348;2023-04-09T05:06:56;28.10;;;18.67;;
16522;SDS011;19889;52.546;13.348;2023-04-09T05:09:24;28.07;;;18.30;;
16522;SDS011;19889;52.546;13.348;2023-04-09T05:12:00;27.83;;;17.43;;
16522;SDS011;19889;52.546;13.348;2023-04-09T05:14:29;29.43;;;19.47;;
16522;SDS011;19889;52.546;13.348;2023-04-09T05:16:56;26.67;;;15.63;;
16522;SDS011;19889;52.546;13.348;2023-04-09T05:19:28;26.20;;;16.73;;
16522;SDS011;19889;52.546;13.348;2023-04-09T05:21:59;27.73;;;15.70;;
16522;SDS011;19889;52.546;13.348;2023-04-09T05:24:26;28.63;;;16.80;;
16522;SDS011;19889;52.546;13.348;2023-04-09T05:26:53;28.27;;;17.27;;
16522;SDS011;19889;52.546;13.348;2023-04-09T05:29:21;25.20;;;15.77;;
16522;SDS011;19889;52.546;13.348;2023-04-09T05:31:49;23.50;;;15.13;;
16522;SDS011;19889;52.546;13.348;2023-04-09T05:34:37;27.37;;;16.47;;
16522;SDS011;19889;52.546;13.348;2023-04-09T05:37:05;25.10;;;16.00;;
16522;SDS011;19889;52.546;13.348;2023-04-09T05:39:32;29.33;;;16.43;;
16522;SDS011;19889;52.546;13.348;2023-04-09T05:42:00;24.80;;;15.60;;
16522;SDS011;19889;52.546;13.348;2023-04-09T05:44:34;25.33;;;16.50;;
16522;SDS011;19889;52.546;13.348;2023-04-09T05:47:10;26.53;;;15.27;;
16522;SDS011;19889;52.546;13.348;2023-04-09T05:49:47;26.30;;;15.90;;
16522;SDS011;19889;52.546;13.348;2023-04-09T05:52:16;25.13;;;15.73;;
16522;SDS011;19889;52.546;13.348;2023-04-09T05:54:43;27.17;;;14.97;;
16522;SDS011;19889;52.546;13.348;2023-04-09T05:57:14;26.93;;;15.77;;
16522;SDS011;19889;52.546;13.348;2023-04-09T05:59:46;26.47;;;16.23;;
16522;SDS011;19889;52.546;13.348;2023-04-09T06:02:15;26.03;;;16.10;;
16522;SDS011;19889;52.546;13.348;2023-04-09T06:04:42;26.50;;;17.03;;
16522;SDS011;19889;52.546;13.348;2023-04-09T06:07:09;28.60;;;17.07;;
16522;SDS011;19889;52.546;13.348;2023-04-09T06:09:36;23.70;;;15.67;;
16522;SDS011;19889;52.546;13.348;2023-04-09T06:12:03;28.53;;;16.63;;
16522;SDS011;19889;52.546;13.348;2023-04-09T06:14:30;28.93;;;16.57;;
16522;SDS011;19889;52.546;13.348;2023-04-09T06:16:57;28.20;;;17.27;;
16522;SDS011;19889;52.546;13.348;2023-04-09T06:19:26;31.47;;;17.77;;
16522;SDS011;19889;52.546;13.348;2023-04-09T06:21:53;26.73;;;17.10;;
16522;SDS011;19889;52.546;13.348;2023-04-09T06:24:20;27.77;;;17.37;;
16522;SDS011;19889;52.546;13.348;2023-04-09T06:26:47;27.93;;;16.70;;
16522;SDS011;19889;52.546;13.348;2023-04-09T06:29:14;30.47;;;17.50;;
16522;SDS011;19889;52.546;13.348;2023-04-09T06:31:41;31.23;;;18.17;;
16522;SDS011;19889;52.546;13.348;2023-04-09T06:34:08;27.30;;;16.40;;
16522;SDS011;19889;52.546;13.348;2023-04-09T06:36:36;28.13;;;17.07;;
16522;SDS011;19889;52.546;13.348;2023-04-09T06:39:04;29.50;;;18.07;;
16522;SDS011;19889;52.546;13.348;2023-04-09T06:41:31;26.30;;;17.10;;
16522;SDS011;19889;52.546;13.348;2023-04-09T06:44:02;27.20;;;16.90;;
16522;SDS011;19889;52.546;13.348;2023-04-09T06:46:29;28.37;;;17.07;;
16522;SDS011;19889;52.546;13.348;2023-04-09T06:48:56;27.67;;;16.53;;
16522;SDS011;19889;52.546;13.348;2023-04-09T06:51:23;29.23;;;17.83;;
16522;SDS011;19889;52.546;13.348;2023-04-09T06:53:52;25.43;;;16.73;;
16522;SDS011;19889;52.546;13.348;2023-04-09T06:56:19;23.60;;;15.63;;
16522;SDS011;19889;52.546;13.348;2023-04-09T06:58:46;28.13;;;15.90;;
16522;SDS011;19889;52.546;13.348;2023-04-09T07:01:13;28.90;;;17.43;;
16522;SDS011;19889;52.546;13.348;2023-04-09T07:03:41;28.30;;;16.77;;
16522;SDS011;19889;52.546;13.348;2023-04-09T07:06:08;27.33;;;17.50;;
16522;SDS011;19889;52.546;13.348;2023-04-09T07:08:35;27.57;;;17.33;;
16522;SDS011;19889;52.546;13.348;2023-04-09T07:11:04;28.50;;;17.60;;
16522;SDS011;19889;52.546;13.348;2023-04-09T07:13:31;29.17;;;17.57;;
16522;SDS011;19889;52.546;13.348;2023-04-09T07:15:58;30.00;;;18.67;;
16522;SDS011;19889;52.546;13.348;2023-04-09T07:18:25;27.33;;;16.87;;
16522;SDS011;19889;52.546;13.348;2023-04-09T07:20:52;30.27;;;18.90;;
16522;SDS011;19889;52.546;13.348;2023-04-09T07:23:20;28.43;;;17.47;;
16522;SDS011;19889;52.546;13.348;2023-04-09T07:25:46;26.10;;;17.03;;
16522;SDS011;19889;52.546;13.348;2023-04-09T07:28:15;27.53;;;17.90;;
16522;SDS011;19889;52.546;13.348;2023-04-09T07:30:42;32.93;;;18.43;;
16522;SDS011;19889;52.546;13.348;2023-04-09T07:33:10;29.20;;;17.93;;
16522;SDS011;19889;52.546;13.348;2023-04-09T07:35:37;27.30;;;17.77;;
16522;SDS011;19889;52.546;13.348;2023-04-09T07:38:04;27.87;;;17.10;;
16522;SDS011;19889;52.546;13.348;2023-04-09T07:40:33;27.93;;;17.33;;
16522;SDS011;19889;52.546;13.348;2023-04-09T07:43:01;27.97;;;17.80;;
16522;SDS011;19889;52.546;13.348;2023-04-09T07:45:29;28.13;;;18.03;;
16522;SDS011;19889;52.546;13.348;2023-04-09T07:47:56;27.80;;;17.67;;
16522;SDS011;19889;52.546;13.348;2023-04-09T07:50:23;32.90;;;19.00;;
16522;SDS011;19889;52.546;13.348;2023-04-09T07:52:51;28.07;;;17.50;;
16522;SDS011;19889;52.546;13.348;2023-04-09T07:55:18;29.07;;;17.90;;
16522;SDS011;19889;52.546;13.348;2023-04-09T07:57:45;27.10;;;17.87;;
16522;SDS011;19889;52.546;13.348;2023-04-09T08:00:12;27.07;;;18.13;;
16522;SDS011;19889;52.546;13.348;2023-04-09T08:02:43;32.40;;;19.70;;
16522;SDS011;19889;52.546;13.348;2023-04-09T08:05:10;29.60;;;18.07;;
16522;SDS011;19889;52.546;13.348;2023-04-09T08:07:37;28.33;;;16.83;;
16522;SDS011;19889;52.546;13.348;2023-04-09T08:10:05;34.57;;;19.53;;
16522;SDS011;19889;52.546;13.348;2023-04-09T08:12:32;40.47;;;23.80;;
16522;SDS011;19889;52.546;13.348;2023-04-09T08:15:00;33.20;;;19.97;;
16522;SDS011;19889;52.546;13.348;2023-04-09T08:17:28;32.70;;;18.80;;
16522;SDS011;19889;52.546;13.348;2023-04-09T08:19:56;29.37;;;18.27;;
16522;SDS011;19889;52.546;13.348;2023-04-09T08:22:23;28.03;;;17.87;;
16522;SDS011;19889;52.546;13.348;2023-04-09T08:24:50;27.43;;;17.53;;
16522;SDS011;19889;52.546;13.348;2023-04-09T08:27:18;29.77;;;19.17;;
16522;SDS011;19889;52.546;13.348;2023-04-09T08:29:46;29.40;;;19.87;;
16522;SDS011;19889;52.546;13.348;2023-04-09T08:32:13;32.10;;;18.33;;
16522;SDS011;19889;52.546;13.348;2023-04-09T08:34:41;29.87;;;17.93;;
16522;SDS011;19889;52.546;13.348;2023-04-09T08:37:09;29.60;;;17.33;;
16522;SDS011;19889;52.546;13.348;2023-04-09T08:39:36;30.97;;;18.77;;
16522;SDS011;19889;52.546;13.348;2023-04-09T08:42:03;31.43;;;19.20;;
16522;SDS011;19889;52.546;13.348;2023-04-09T08:44:33;30.23;;;18.13;;
16522;SDS011;19889;52.546;13.348;2023-04-09T08:47:00;31.90;;;19.23;;
16522;SDS011;19889;52.546;13.348;2023-04-09T08:49:27;30.27;;;18.90;;
16522;SDS011;19889;52.546;13.348;2023-04-09T08:51:54;31.37;;;19.30;;
16522;SDS011;19889;52.546;13.348;2023-04-09T08:54:23;27.97;;;18.63;;
16522;SDS011;19889;52.546;13.348;2023-04-09T08:56:50;29.53;;;18.93;;
16522;SDS011;19889;52.546;13.348;2023-04-09T08:59:17;29.37;;;19.07;;
16522;SDS011;19889;52.546;13.348;2023-04-09T09:01:44;31.20;;;20.33;;
16522;SDS011;19889;52.546;13.348;2023-04-09T09:04:16;30.97;;;19.03;;
16522;SDS011;19889;52.546;13.348;2023-04-09T09:06:43;29.23;;;17.93;;
16522;SDS011;19889;52.546;13.348;2023-04-09T09:09:11;26.10;;;17.43;;
16522;SDS011;19889;52.546;13.348;2023-04-09T09:11:41;29.67;;;18.63;;
16522;SDS011;19889;52.546;13.348;2023-04-09T09:14:10;33.00;;;19.80;;
16522;SDS011;19889;52.546;13.348;2023-04-09T09:16:39;29.57;;;18.63;;
16522;SDS011;19889;52.546;13.348;2023-04-09T09:19:07;25.63;;;17.43;;
16522;SDS011;19889;52.546;13.348;2023-04-09T09:21:35;30.13;;;18.73;;
16522;SDS011;19889;52.546;13.348;2023-04-09T09:24:05;28.27;;;18.00;;
16522;SDS011;19889;52.546;13.348;2023-04-09T09:26:43;30.70;;;18.83;;
16522;SDS011;19889;52.546;13.348;2023-04-09T09:29:10;27.83;;;17.83;;
16522;SDS011;19889;52.546;13.348;2023-04-09T09:31:44;27.57;;;18.13;;
16522;SDS011;19889;52.546;13.348;2023-04-09T09:34:13;28.83;;;19.20;;
16522;SDS011;19889;52.546;13.348;2023-04-09T09:36:41;27.63;;;18.63;;
16522;SDS011;19889;52.546;13.348;2023-04-09T09:39:08;28.13;;;18.63;;
16522;SDS011;19889;52.546;13.348;2023-04-09T09:41:37;29.03;;;17.70;;
16522;SDS011;19889;52.546;13.348;2023-04-09T09:44:06;28.27;;;17.43;;
16522;SDS011;19889;52.546;13.348;2023-04-09T09:46:35;29.00;;;18.80;;
16522;SDS011;19889;52.546;13.348;2023-04-09T09:49:03;29.07;;;18.07;;
16522;SDS011;19889;52.546;13.348;2023-04-09T09:51:31;25.90;;;17.00;;
16522;SDS011;19889;52.546;13.348;2023-04-09T09:54:01;28.40;;;18.93;;
16522;SDS011;19889;52.546;13.348;2023-04-09T09:56:29;30.33;;;18.60;;
16522;SDS011;19889;52.546;13.348;2023-04-09T09:59:01;29.47;;;17.70;;
16522;SDS011;19889;52.546;13.348;2023-04-09T10:01:36;28.67;;;18.73;;
16522;SDS011;19889;52.546;13.348;2023-04-09T10:04:04;29.07;;;18.77;;
16522;SDS011;19889;52.546;13.348;2023-04-09T10:06:37;29.30;;;16.87;;
16522;SDS011;19889;52.546;13.348;2023-04-09T10:09:08;29.27;;;17.37;;
16522;SDS011;19889;52.546;13.348;2023-04-09T10:11:36;26.83;;;17.30;;
16522;SDS011;19889;52.546;13.348;2023-04-09T10:14:08;26.40;;;17.73;;
16522;SDS011;19889;52.546;13.348;2023-04-09T10:16:35;25.10;;;17.57;;
16522;SDS011;19889;52.546;13.348;2023-04-09T10:19:02;29.50;;;18.77;;
16522;SDS011;19889;52.546;13.348;2023-04-09T10:21:35;23.70;;;17.17;;
16522;SDS011;19889;52.546;13.348;2023-04-09T10:24:06;25.00;;;15.90;;
16522;SDS011;19889;52.546;13.348;2023-04-09T10:26:34;24.50;;;15.53;;
16522;SDS011;19889;52.546;13.348;2023-04-09T10:29:06;28.57;;;16.80;;
16522;SDS011;19889;52.546;13.348;2023-04-09T10:31:45;24.17;;;16.50;;
16522;SDS011;19889;52.546;13.348;2023-04-09T10:34:14;26.17;;;16.60;;
16522;SDS011;19889;52.546;13.348;2023-04-09T10:36:43;23.97;;;16.00;;
16522;SDS011;19889;52.546;13.348;2023-04-09T10:39:11;26.83;;;16.67;;
16522;SDS011;19889;52.546;13.348;2023-04-09T10:41:38;26.73;;;16.57;;
16522;SDS011;19889;52.546;13.348;2023-04-09T10:44:15;26.20;;;16.20;;
16522;SDS011;19889;52.546;13.348;2023-04-09T10:46:46;25.40;;;16.93;;
16522;SDS011;19889;52.546;13.348;2023-04-09T10:49:14;22.97;;;15.20;;
16522;SDS011;19889;52.546;13.348;2023-04-09T10:51:46;25.83;;;16.17;;
16522;SDS011;19889;52.546;13.348;2023-04-09T10:57:14;29.10;;;16.73;;
16522;SDS011;19889;52.546;13.348;2023-04-09T10:59:45;25.97;;;16.27;;
16522;SDS011;19889;52.546;13.348;2023-04-09T11:02:23;26.63;;;16.23;;
16522;SDS011;19889;52.546;13.348;2023-04-09T11:05:21;23.67;;;15.30;;
16522;SDS011;19889;52.546;13.348;2023-04-09T11:07:56;22.23;;;14.73;;
16522;SDS011;19889;52.546;13.348;2023-04-09T11:10:29;22.53;;;14.57;;
16522;SDS011;19889;52.546;13.348;2023-04-09T11:12:56;22.07;;;14.53;;
16522;SDS011;19889;52.546;13.348;2023-04-09T11:15:25;23.13;;;14.60;;
16522;SDS011;19889;52.546;13.348;2023-04-09T11:17:52;25.57;;;15.30;;
16522;SDS011;19889;52.546;13.348;2023-04-09T11:20:20;23.13;;;14.70;;
16522;SDS011;19889;52.546;13.348;2023-04-09T11:22:48;22.93;;;14.80;;
16522;SDS011;19889;52.546;13.348;2023-04-09T11:25:17;25.33;;;15.37;;
16522;SDS011;19889;52.546;13.348;2023-04-09T11:27:44;24.83;;;15.30;;
16522;SDS011;19889;52.546;13.348;2023-04-09T11:30:12;20.87;;;14.27;;
16522;SDS011;19889;52.546;13.348;2023-04-09T11:32:40;22.17;;;13.73;;
16522;SDS011;19889;52.546;13.348;2023-04-09T11:35:11;24.37;;;15.10;;
16522;SDS011;19889;52.546;13.348;2023-04-09T11:37:40;24.80;;;13.83;;
16522;SDS011;19889;52.546;13.348;2023-04-09T11:40:12;23.47;;;14.90;;
16522;SDS011;19889;52.546;13.348;2023-04-09T11:42:44;22.93;;;14.23;;
16522;SDS011;19889;52.546;13.348;2023-04-09T11:45:13;30.60;;;17.03;;
16522;SDS011;19889;52.546;13.348;2023-04-09T11:47:42;24.37;;;14.63;;
16522;SDS011;19889;52.546;13.348;2023-04-09T11:50:11;22.83;;;14.67;;
16522;SDS011;19889;52.546;13.348;2023-04-09T11:52:39;23.63;;;13.23;;
16522;SDS011;19889;52.546;13.348;2023-04-09T11:55:07;24.57;;;13.90;;
16522;SDS011;19889;52.546;13.348;2023-04-09T11:57:35;21.67;;;14.20;;
16522;SDS011;19889;52.546;13.348;2023-04-09T12:00:05;20.37;;;14.07;;
16522;SDS011;19889;52.546;13.348;2023-04-09T12:02:36;21.87;;;14.07;;
16522;SDS011;19889;52.546;13.348;2023-04-09T12:05:22;20.07;;;12.40;;
16522;SDS011;19889;52.546;13.348;2023-04-09T12:07:50;22.60;;;14.97;;
16522;SDS011;19889;52.546;13.348;2023-04-09T12:10:25;22.03;;;14.83;;
16522;SDS011;19889;52.546;13.348;2023-04-09T12:12:53;22.03;;;13.90;;
16522;SDS011;19889;52.546;13.348;2023-04-09T12:15:20;23.67;;;14.33;;
16522;SDS011;19889;52.546;13.348;2023-04-09T12:17:50;22.67;;;14.50;;
16522;SDS011;19889;52.546;13.348;2023-04-09T12:20:26;23.30;;;14.10;;
16522;SDS011;19889;52.546;13.348;2023-04-09T12:22:57;21.03;;;14.33;;
16522;SDS011;19889;52.546;13.348;2023-04-09T12:25:25;23.43;;;14.20;;
16522;SDS011;19889;52.546;13.348;2023-04-09T12:27:53;21.70;;;13.97;;
16522;SDS011;19889;52.546;13.348;2023-04-09T12:30:20;22.73;;;14.30;;
16522;SDS011;19889;52.546;13.348;2023-04-09T12:32:48;22.40;;;13.83;;
16522;SDS011;19889;52.546;13.348;2023-04-09T12:35:17;23.70;;;14.50;;
16522;SDS011;19889;52.546;13.348;2023-04-09T12:37:44;23.07;;;14.13;;
16522;SDS011;19889;52.546;13.348;2023-04-09T12:40:11;20.80;;;13.67;;
16522;SDS011;19889;52.546;13.348;2023-04-09T12:42:39;22.30;;;14.63;;
16522;SDS011;19889;52.546;13.348;2023-04-09T12:45:07;24.43;;;16.00;;
16522;SDS011;19889;52.546;13.348;2023-04-09T12:47:35;22.37;;;14.87;;
16522;SDS011;19889;52.546;13.348;2023-04-09T12:50:05;22.57;;;13.13;;
16522;SDS011;19889;52.546;13.348;2023-04-09T12:52:34;22.87;;;14.53;;
16522;SDS011;19889;52.546;13.348;2023-04-09T12:55:01;23.33;;;14.20;;
16522;SDS011;19889;52.546;13.348;2023-04-09T12:57:28;22.77;;;13.63;;
16522;SDS011;19889;52.546;13.348;2023-04-09T12:59:55;22.03;;;13.13;;
16522;SDS011;19889;52.546;13.348;2023-04-09T13:02:22;20.53;;;13.77;;
16522;SDS011;19889;52.546;13.348;2023-04-09T13:04:49;27.33;;;17.90;;
16522;SDS011;19889;52.546;13.348;2023-04-09T13:07:18;23.83;;;14.40;;
16522;SDS011;19889;52.546;13.348;2023-04-09T13:09:45;21.20;;;13.53;;
16522;SDS011;19889;52.546;13.348;2023-04-09T13:12:14;20.90;;;13.93;;
16522;SDS011;19889;52.546;13.348;2023-04-09T13:14:42;24.20;;;15.83;;
16522;SDS011;19889;52.546;13.348;2023-04-09T13:17:10;22.77;;;14.70;;
16522;SDS011;19889;52.546;13.348;2023-04-09T13:19:37;30.23;;;19.00;;
16522;SDS011;19889;52.546;13.348;2023-04-09T13:22:04;23.20;;;15.73;;
16522;SDS011;19889;52.546;13.348;2023-04-09T13:24:34;22.60;;;14.17;;
16522;SDS011;19889;52.546;13.348;2023-04-09T13:27:01;24.93;;;15.77;;
16522;SDS011;19889;52.546;13.348;2023-04-09T13:29:28;22.90;;;14.17;;
16522;SDS011;19889;52.546;13.348;2023-04-09T13:31:56;22.67;;;14.27;;
16522;SDS011;19889;52.546;13.348;2023-04-09T13:34:23;21.40;;;13.57;;
16522;SDS011;19889;52.546;13.348;2023-04-09T13:36:50;25.10;;;15.80;;
16522;SDS011;19889;52.546;13.348;2023-04-09T13:39:17;25.37;;;15.33;;
16522;SDS011;19889;52.546;13.348;2023-04-09T13:41:46;21.23;;;14.90;;
16522;SDS011;19889;52.546;13.348;2023-04-09T13:44:13;22.30;;;14.83;;
16522;SDS011;19889;52.546;13.348;2023-04-09T13:46:40;29.40;;;18.63;;
16522;SDS011;19889;52.546;13.348;2023-04-09T13:49:07;22.93;;;15.30;;
16522;SDS011;19889;52.546;13.348;2023-04-09T13:51:34;20.53;;;14.03;;
16522;SDS011;19889;52.546;13.348;2023-04-09T13:54:01;23.23;;;13.83;;
16522;SDS011;19889;52.546;13.348;2023-04-09T13:56:28;23.27;;;13.57;;
16522;SDS011;19889;52.546;13.348;2023-04-09T13:58:57;23.10;;;14.47;;
16522;SDS011;19889;52.546;13.348;2023-04-09T14:01:24;22.77;;;13.77;;
16522;SDS011;19889;52.546;13.348;2023-04-09T14:03:52;20.63;;;13.53;;
16522;SDS011;19889;52.546;13.348;2023-04-09T14:06:19;22.50;;;14.13;;
16522;SDS011;19889;52.546;13.348;2023-04-09T14:08:46;21.70;;;12.90;;
16522;SDS011;19889;52.546;13.348;2023-04-09T14:11:13;22.70;;;12.70;;
16522;SDS011;19889;52.546;13.348;2023-04-09T14:13:40;20.63;;;13.30;;
16522;SDS011;19889;52.546;13.348;2023-04-09T14:16:09;19.43;;;13.20;;
16522;SDS011;19889;52.546;13.348;2023-04-09T14:18:36;19.97;;;14.60;;
16522;SDS011;19889;52.546;13.348;2023-04-09T14:21:04;52.70;;;33.67;;
16522;SDS011;19889;52.546;13.348;2023-04-09T14:23:32;29.63;;;19.50;;